Messwerte Gwalior

Temperatur

Temperatur
°C
1594369800 14.00 14.00 34
1594373400 15.00 15.00 35
1594377000 16.00 16.00
1594380600 17.00 17.00 35
1594384200 18.00 18.00 35
1594387800 19.00 19.00 34
1594391400 20.00 20.00 32
1594395000 21.00 21.00 32
1594398600 22.00 22.00 32
1594402200 23.00 23.00 32
1594405800 0.00 0.00 32
1594409400 1.00 1.00
1594413000 2.00 2.00
1594416600 3.00 3.00 31
1594420200 4.00 4.00
1594423800 5.00 5.00 30
1594427400 6.00 6.00 30
1594431000 7.00 7.00 30
1594434600 8.00 8.00 30
1594438200 9.00 9.00 31
1594441800 10.00 10.00 32
1594445400 11.00 11.00
1594449000 12.00 12.00 35
1594452600 13.00 13.00 36

Aktuellste Messwerte

Wettercharakter
Wetter: freundlich
Temperatur
35 °C
Feuchtigkeit
60 %
Wind
15 km/hWindrichtung: West
Luftdruck
999 hPa
Messzeit: 11. Juli 2020, 13.30Datenquelle: METAR

Weitere Messstationen in der Nähe

Messstation Temperatur Entfernung
Agra 35 °C 106 km
Jaipur 36 °C 252 km
Lakhnau 34 °C 268 km
Neu-Delhi 34 °C 281 km
Neu-Delhi 35 °C 283 km
Pantnagar 29 °C 334 km
Bhopal 29 °C 340 km

Wind

Windrichtung Böen Mittelwind
° km/h km/h
1594369800 14.00 13.00 - 14.00 230° 15
1594373400 15.00 14.00 - 15.00 260° 15
1594377000 16.00 15.00 - 16.00
1594380600 17.00 16.00 - 17.00 230° 15
1594384200 18.00 17.00 - 18.00 230° 15
1594387800 19.00 18.00 - 19.00 220° 5
1594391400 20.00 19.00 - 20.00 220° 5
1594395000 21.00 20.00 - 21.00 170° 15
1594398600 22.00 21.00 - 22.00 200° 15
1594402200 23.00 22.00 - 23.00 190° 15
1594405800 0.00 23.00 - 0.00 200° 15
1594409400 1.00 0.00 - 1.00
1594413000 2.00 1.00 - 2.00
1594416600 3.00 2.00 - 3.00 240° 15
1594420200 4.00 3.00 - 4.00
1594423800 5.00 4.00 - 5.00 240° 15
1594427400 6.00 5.00 - 6.00 240° 15
1594431000 7.00 6.00 - 7.00 250° 15
1594434600 8.00 7.00 - 8.00 240° 20
1594438200 9.00 8.00 - 9.00 270° 15
1594441800 10.00 9.00 - 10.00 280° 20
1594445400 11.00 10.00 - 11.00
1594449000 12.00 11.00 - 12.00 300° 15
1594452600 13.00 12.00 - 13.00 270° 20

Ihre Wetterstation

Fehlt Ihre Wetterstation auf unserem Portal?

Schreiben Sie an network@meteonews.ch

Klima

Wann ist es am wärmsten? Wann regnet es am wenigsten? Unsere Klimadaten geben Auskunft.